Richmond, Minnesota
Current Conditions -  °F | °C
As of 11:14 PM on Monday 20 Oct 2014 (Local Time) from KPEX Reporting Station
Clear Clear  
Wind Chill: 40°   Ceiling: Unl
Heat Index: 42°   Visibility: 10mi
Dew Point: 38°   Wind: 5mph
Humidity: 83%   Direction: 50°NE
Pressure: 30.09"   Gusts: NA
Location:  45.45°N, 94.52°W
Report Text: KPEX 210414Z AUTO 05004KT 10SM CLR 06/03 A3009 RMK AO2 T00580031
Loading
Personal Weather Stations






























Interactive Weather Map
Tropical Storm Tracking
New forecast layout! Learn more

10-Day Weather Forecast

Advertisements
Track Severe Weather on mobile